Wayzata, Minnesota
Current Conditions -  °F | °C
As of 7:53 PM on Monday 20 Oct 2014 (Local Time) from KFCM Reporting Station
Clear Clear  
Wind Chill: 54°   Ceiling: Unl
Heat Index: 54°   Visibility: 10mi
Dew Point: 39°   Wind: 7mph
Humidity: 57%   Direction: 40°NE
Pressure: 30.03"   Gusts: NA
Location:  44.97°N, 93.51°W
Report Text: KFCM 210053Z 04006KT 10SM CLR 12/04 A3003 RMK AO2 SLP173 T01220039
Loading
Personal Weather Stations






























Interactive Weather Map
Tropical Storm Tracking
New forecast layout! Learn more

10-Day Weather Forecast

Advertisements
Track Severe Weather on mobile